createdAt,value
2018-03-16T00:00:00.354Z,12.16
2018-03-16T00:00:40.844Z,12.1
2018-03-16T00:01:21.337Z,12.02
2018-03-16T00:02:01.798Z,12.02
2018-03-16T00:02:42.298Z,12.02
2018-03-16T00:03:22.808Z,12.09
2018-03-16T00:04:03.311Z,12.07
2018-03-16T00:04:43.816Z,12.09
2018-03-16T00:05:24.312Z,12.14
2018-03-16T00:06:04.837Z,12.12
2018-03-16T00:06:45.291Z,12.14
2018-03-16T00:07:25.790Z,12.17
2018-03-16T00:08:06.320Z,12.12
2018-03-16T00:08:46.832Z,12.01
2018-03-16T00:09:27.346Z,11.99
2018-03-16T00:10:07.872Z,12.02
2018-03-16T00:10:48.370Z,11.99
2018-03-16T00:11:28.887Z,12.13
2018-03-16T00:12:09.401Z,12.04
2018-03-16T00:12:49.882Z,11.9
2018-03-16T00:13:30.430Z,11.94
2018-03-16T00:14:10.905Z,11.95
2018-03-16T00:14:51.448Z,11.96
2018-03-16T00:15:31.918Z,12.05
2018-03-16T00:16:12.427Z,12.12
2018-03-16T00:16:52.954Z,12.1
2018-03-16T00:17:33.457Z,12.12
2018-03-16T00:18:13.912Z,12.17
2018-03-16T00:18:54.436Z,12.09
2018-03-16T00:19:34.905Z,12.13
2018-03-16T00:20:15.504Z,12.07
2018-03-16T00:20:55.856Z,12.14
2018-03-16T00:21:36.318Z,12.19
2018-03-16T00:22:16.866Z,12.13
2018-03-16T00:22:57.663Z,12.14
2018-03-16T00:23:37.890Z,12.12
2018-03-16T00:24:18.374Z,12.21
2018-03-16T00:24:58.887Z,12.21
2018-03-16T00:25:39.405Z,12.28
2018-03-16T00:26:19.884Z,12.31
2018-03-16T00:27:00.411Z,12.28
2018-03-16T00:27:40.938Z,12.28
2018-03-16T00:28:21.462Z,12.24
2018-03-16T00:29:01.985Z,12.19
2018-03-16T00:29:42.499Z,12.17
2018-03-16T00:30:23.022Z,12.12
2018-03-16T00:31:03.522Z,12.2
2018-03-16T00:31:44.033Z,12.31
2018-03-16T00:32:24.545Z,12.27
2018-03-16T00:33:05.064Z,12.32
2018-03-16T00:33:45.584Z,12.35
2018-03-16T00:34:26.080Z,12.35
2018-03-16T00:35:06.655Z,12.28
2018-03-16T00:35:47.155Z,12.23
2018-03-16T00:36:27.681Z,12.29
2018-03-16T00:37:08.168Z,12.28
2018-03-16T00:37:48.695Z,12.28
2018-03-16T00:38:29.205Z,12.27
2018-03-16T00:39:09.752Z,12.31
2018-03-16T00:39:50.244Z,12.28
2018-03-16T00:40:30.751Z,12.24
2018-03-16T00:41:11.260Z,12.37
2018-03-16T00:41:51.771Z,12.41
2018-03-16T00:42:32.305Z,12.35
2018-03-16T00:43:12.780Z,12.31
2018-03-16T00:43:53.292Z,12.27
2018-03-16T00:44:33.806Z,12.16
2018-03-16T00:45:14.332Z,12.1
2018-03-16T00:45:54.859Z,12.16
2018-03-16T00:46:35.378Z,12.12
2018-03-16T00:47:15.897Z,12.27
2018-03-16T00:47:56.418Z,12.12
2018-03-16T00:48:36.933Z,12.14
2018-03-16T00:49:17.433Z,12.17
2018-03-16T00:49:57.941Z,12.14
2018-03-16T00:50:38.467Z,12.1
2018-03-16T00:51:19.000Z,12.07
2018-03-16T00:51:59.521Z,12.16
2018-03-16T00:52:40.044Z,12.09
2018-03-16T00:53:20.592Z,12.12
2018-03-16T00:54:01.081Z,12.14
2018-03-16T00:54:41.609Z,12.16
2018-03-16T00:55:22.129Z,12.09
2018-03-16T00:56:02.647Z,12.09
2018-03-16T00:56:43.159Z,12.05
2018-03-16T00:57:23.697Z,12.05
2018-03-16T00:58:04.212Z,12.04
2018-03-16T00:58:44.729Z,11.99
2018-03-16T00:59:25.243Z,12.01
2018-03-16T01:00:05.760Z,12.01
2018-03-16T01:00:46.276Z,11.99
2018-03-16T01:01:26.793Z,12.07
2018-03-16T01:02:07.324Z,12.1
2018-03-16T01:02:47.837Z,12.12
2018-03-16T01:03:28.355Z,12.1
2018-03-16T01:04:08.876Z,12.01
2018-03-16T01:04:49.388Z,12.02
2018-03-16T01:05:29.905Z,12.02
2018-03-16T01:06:10.408Z,11.99
2018-03-16T01:06:50.930Z,12.04
2018-03-16T01:07:31.435Z,12.07
2018-03-16T01:08:11.950Z,11.96
2018-03-16T01:08:52.470Z,11.98
2018-03-16T01:09:33.021Z,11.96
2018-03-16T01:10:13.549Z,11.86
2018-03-16T01:10:54.015Z,11.9
2018-03-16T01:11:34.514Z,11.95
2018-03-16T01:12:15.028Z,11.96
2018-03-16T01:12:55.554Z,11.96
2018-03-16T01:13:36.063Z,11.99
2018-03-16T01:14:16.582Z,12.01
2018-03-16T01:14:57.094Z,12.05
2018-03-16T01:15:37.603Z,12.01
2018-03-16T01:16:18.149Z,12.01
2018-03-16T01:16:58.655Z,12.1
2018-03-16T01:17:39.165Z,11.99
2018-03-16T01:18:19.679Z,12.13
2018-03-16T01:19:00.183Z,12.13
2018-03-16T01:19:40.704Z,12.05
2018-03-16T01:20:21.222Z,12.12
2018-03-16T01:21:01.751Z,12.12
2018-03-16T01:21:42.263Z,12.19
2018-03-16T01:22:22.770Z,12.12
2018-03-16T01:23:03.284Z,12.17
2018-03-16T01:23:43.820Z,12.14
2018-03-16T01:24:24.304Z,12.16
2018-03-16T01:25:04.819Z,12.19
2018-03-16T01:25:45.344Z,12.2
2018-03-16T01:26:25.861Z,12.02
2018-03-16T01:27:06.385Z,12.04
2018-03-16T01:27:46.901Z,12.01
2018-03-16T01:28:27.424Z,11.91
2018-03-16T01:29:07.984Z,11.9
2018-03-16T01:29:48.442Z,12.01
2018-03-16T01:30:28.961Z,11.85
2018-03-16T01:31:09.461Z,11.83
2018-03-16T01:31:49.968Z,11.76
2018-03-16T01:32:30.503Z,11.78
2018-03-16T01:33:10.997Z,11.8
2018-03-16T01:33:51.514Z,11.83
2018-03-16T01:34:32.021Z,11.76
2018-03-16T01:35:12.535Z,11.76
2018-03-16T01:35:53.060Z,11.82
2018-03-16T01:36:33.547Z,11.79
2018-03-16T01:37:14.029Z,11.79
2018-03-16T01:37:54.533Z,11.96
2018-03-16T01:38:35.050Z,11.85
2018-03-16T01:39:15.551Z,11.9
2018-03-16T01:39:56.080Z,11.83
2018-03-16T01:40:36.567Z,11.85
2018-03-16T01:41:17.057Z,11.9
2018-03-16T01:41:57.560Z,11.94
2018-03-16T01:42:38.049Z,11.91
2018-03-16T01:43:18.560Z,11.88
2018-03-16T01:43:59.076Z,11.94
2018-03-16T01:44:39.592Z,11.86
2018-03-16T01:45:20.111Z,11.83
2018-03-16T01:46:00.635Z,11.7
2018-03-16T01:46:41.134Z,11.78
2018-03-16T01:47:21.665Z,11.79
2018-03-16T01:48:02.167Z,11.9
2018-03-16T01:48:42.678Z,11.9
2018-03-16T01:49:23.192Z,11.88
2018-03-16T01:50:03.706Z,11.94
2018-03-16T01:50:44.220Z,11.79
2018-03-16T01:51:24.733Z,11.86
2018-03-16T01:52:05.242Z,11.88
2018-03-16T01:52:45.748Z,11.85
2018-03-16T01:53:26.267Z,11.95
2018-03-16T01:54:06.824Z,11.85
2018-03-16T01:54:47.304Z,11.9
2018-03-16T01:55:27.823Z,11.95
2018-03-16T01:56:08.373Z,11.98
2018-03-16T01:56:48.889Z,11.78
2018-03-16T01:57:29.409Z,11.78
2018-03-16T01:58:09.900Z,11.9
2018-03-16T01:58:50.433Z,11.98
2018-03-16T01:59:30.945Z,11.96
2018-03-16T02:00:11.467Z,11.99
2018-03-16T02:00:51.990Z,11.86
2018-03-16T02:01:32.509Z,11.86
2018-03-16T02:02:13.028Z,11.94
2018-03-16T02:02:53.540Z,11.95
2018-03-16T02:03:34.045Z,11.95
2018-03-16T02:04:14.549Z,11.85
2018-03-16T02:04:55.062Z,11.91
2018-03-16T02:05:35.578Z,11.98
2018-03-16T02:06:16.101Z,11.76
2018-03-16T02:06:56.611Z,11.72
2018-03-16T02:07:37.127Z,11.8
2018-03-16T02:08:17.655Z,11.73
2018-03-16T02:08:58.164Z,11.65
2018-03-16T02:09:38.685Z,11.73
2018-03-16T02:10:19.205Z,11.72
2018-03-16T02:10:59.718Z,11.76
2018-03-16T02:11:40.237Z,11.76
2018-03-16T02:12:20.745Z,11.73
2018-03-16T02:13:01.256Z,11.64
2018-03-16T02:13:41.777Z,11.64
2018-03-16T02:14:22.296Z,11.73
2018-03-16T02:15:02.818Z,11.75
2018-03-16T02:15:43.327Z,11.82
2018-03-16T02:16:23.871Z,11.76
2018-03-16T02:17:04.382Z,11.78
2018-03-16T02:17:44.892Z,11.65
2018-03-16T02:18:25.420Z,11.72
2018-03-16T02:19:05.941Z,11.73
2018-03-16T02:19:46.453Z,11.85
2018-03-16T02:20:26.961Z,11.79
2018-03-16T02:21:07.472Z,11.83
2018-03-16T02:21:48.000Z,11.8
2018-03-16T02:22:28.524Z,11.72
2018-03-16T02:23:09.033Z,11.76
2018-03-16T02:23:49.577Z,11.88
2018-03-16T02:24:30.126Z,11.79
2018-03-16T02:25:10.638Z,11.72
2018-03-16T02:25:51.169Z,11.67
2018-03-16T02:26:31.692Z,11.64
2018-03-16T02:27:12.211Z,11.64
2018-03-16T02:27:52.756Z,11.82
2018-03-16T02:28:33.251Z,11.75
2018-03-16T02:29:13.759Z,11.73
2018-03-16T02:29:54.270Z,11.83
2018-03-16T02:30:34.784Z,11.82
2018-03-16T02:31:15.312Z,11.8
2018-03-16T02:31:55.824Z,11.79
2018-03-16T02:32:36.357Z,11.73
2018-03-16T02:33:16.883Z,11.75
2018-03-16T02:33:57.394Z,11.79
2018-03-16T02:34:37.915Z,11.83
2018-03-16T02:35:18.436Z,11.8
2018-03-16T02:35:58.952Z,11.6
2018-03-16T02:36:39.471Z,11.72
2018-03-16T02:37:20.003Z,11.82
2018-03-16T02:38:00.514Z,11.8
2018-03-16T02:38:41.060Z,11.85
2018-03-16T02:39:21.602Z,11.88
2018-03-16T02:40:02.069Z,12.01
2018-03-16T02:40:42.564Z,11.98
2018-03-16T02:41:23.134Z,11.86
2018-03-16T02:42:03.603Z,11.9
2018-03-16T02:42:44.119Z,11.91
2018-03-16T02:43:24.578Z,12.01
2018-03-16T02:44:05.105Z,11.75
2018-03-16T02:44:45.602Z,11.75
2018-03-16T02:45:26.118Z,11.79
2018-03-16T02:46:06.639Z,11.8
2018-03-16T02:46:47.159Z,11.85
2018-03-16T02:47:27.621Z,11.91
2018-03-16T02:48:08.134Z,11.91
2018-03-16T02:48:48.638Z,11.95
2018-03-16T02:49:29.152Z,11.86
2018-03-16T02:50:09.644Z,11.98
2018-03-16T02:50:50.179Z,11.98
2018-03-16T02:51:30.680Z,11.78
2018-03-16T02:52:11.217Z,11.86
2018-03-16T02:52:51.688Z,11.83
2018-03-16T02:53:32.232Z,11.76
2018-03-16T02:54:12.737Z,11.82
2018-03-16T02:54:53.258Z,11.82
2018-03-16T02:55:33.777Z,11.83
2018-03-16T02:56:14.295Z,11.76
2018-03-16T02:56:54.846Z,11.75
2018-03-16T02:57:35.356Z,11.85
2018-03-16T02:58:15.879Z,11.75
2018-03-16T02:58:56.389Z,11.78
2018-03-16T02:59:36.948Z,11.82
2018-03-16T03:00:17.411Z,11.67
2018-03-16T03:00:57.930Z,11.58
2018-03-16T03:01:38.478Z,11.67
2018-03-16T03:02:18.987Z,11.78
2018-03-16T03:02:59.480Z,11.85
2018-03-16T03:03:40.000Z,11.79
2018-03-16T03:04:20.502Z,11.79
2018-03-16T03:05:01.014Z,11.83
2018-03-16T03:05:41.539Z,11.79
2018-03-16T03:06:22.051Z,11.75
2018-03-16T03:07:02.560Z,11.73
2018-03-16T03:07:43.097Z,11.83
2018-03-16T03:08:23.592Z,11.82
2018-03-16T03:09:04.073Z,11.82
2018-03-16T03:09:44.607Z,11.6
2018-03-16T03:10:25.118Z,11.72
2018-03-16T03:11:05.642Z,11.8
2018-03-16T03:11:46.151Z,11.75
2018-03-16T03:12:26.661Z,11.72
2018-03-16T03:13:07.187Z,11.73
2018-03-16T03:13:47.687Z,11.69
2018-03-16T03:14:28.238Z,11.61
2018-03-16T03:15:08.772Z,11.55
2018-03-16T03:15:49.267Z,11.7
2018-03-16T03:16:29.792Z,11.73
2018-03-16T03:17:10.320Z,11.75
2018-03-16T03:17:50.837Z,11.76
2018-03-16T03:18:31.330Z,11.78
2018-03-16T03:19:11.848Z,11.86
2018-03-16T03:19:52.342Z,11.82
2018-03-16T03:20:32.876Z,11.82
2018-03-16T03:21:13.396Z,11.8
2018-03-16T03:21:53.907Z,11.75
2018-03-16T03:22:34.424Z,11.69
2018-03-16T03:23:14.964Z,11.67
2018-03-16T03:23:55.540Z,11.62
2018-03-16T03:24:36.059Z,11.7
2018-03-16T03:25:16.572Z,11.6
2018-03-16T03:25:57.062Z,11.55
2018-03-16T03:26:37.592Z,11.55
2018-03-16T03:27:18.087Z,11.64
2018-03-16T03:27:58.599Z,11.72
2018-03-16T03:28:39.111Z,11.69
2018-03-16T03:29:19.592Z,11.69
2018-03-16T03:30:00.204Z,11.73
2018-03-16T03:30:40.656Z,11.75
2018-03-16T03:31:21.295Z,11.76
2018-03-16T03:32:01.788Z,11.79
2018-03-16T03:32:42.320Z,11.72
2018-03-16T03:33:22.828Z,11.72
2018-03-16T03:34:03.392Z,11.79
2018-03-16T03:34:43.920Z,11.78
2018-03-16T03:35:24.371Z,11.73
2018-03-16T03:36:04.939Z,11.75
2018-03-16T03:36:45.437Z,11.79
2018-03-16T03:37:25.954Z,11.64
2018-03-16T03:38:06.444Z,11.64
2018-03-16T03:38:46.956Z,11.73
2018-03-16T03:39:27.482Z,11.79
2018-03-16T03:40:07.972Z,11.64
2018-03-16T03:42:06.174Z,11.78
2018-03-16T03:42:46.782Z,11.75
2018-03-16T03:43:27.246Z,11.69
2018-03-16T03:44:07.743Z,11.61
2018-03-16T03:44:48.263Z,11.73
2018-03-16T03:45:28.829Z,11.76
2018-03-16T03:46:09.349Z,11.75
2018-03-16T03:46:49.863Z,11.83
2018-03-16T03:47:30.386Z,11.79
2018-03-16T03:48:10.878Z,11.79
2018-03-16T03:48:51.387Z,11.78
2018-03-16T03:49:31.933Z,11.78
2018-03-16T03:50:12.436Z,11.8
2018-03-16T03:50:52.906Z,11.67
2018-03-16T03:51:33.396Z,11.73
2018-03-16T03:52:13.913Z,11.72
2018-03-16T03:52:54.422Z,11.75
2018-03-16T03:53:34.943Z,11.73
2018-03-16T03:54:15.442Z,11.83
2018-03-16T03:54:55.941Z,11.8
2018-03-16T03:55:36.449Z,11.79
2018-03-16T03:56:17.220Z,11.78
2018-03-16T03:56:57.415Z,11.8
2018-03-16T03:57:37.902Z,11.73
2018-03-16T03:58:18.406Z,11.79
2018-03-16T03:58:58.901Z,11.79
2018-03-16T03:59:39.451Z,11.85
2018-03-16T04:00:19.960Z,11.76
2018-03-16T04:01:00.507Z,11.79
2018-03-16T04:01:41.012Z,11.85
2018-03-16T04:02:21.534Z,11.86
2018-03-16T04:03:02.022Z,11.98
2018-03-16T04:03:42.506Z,12.04
2018-03-16T04:04:23.023Z,11.95
2018-03-16T04:05:03.546Z,11.98
2018-03-16T04:05:44.031Z,11.98
2018-03-16T04:06:24.565Z,11.99
2018-03-16T04:07:05.061Z,11.96
2018-03-16T04:07:45.548Z,12.04
2018-03-16T04:08:26.059Z,12.04
2018-03-16T04:09:06.568Z,12.07
2018-03-16T04:09:47.080Z,12.12
2018-03-16T04:10:27.563Z,12.14
2018-03-16T04:11:08.082Z,12.12
2018-03-16T04:11:48.577Z,12.16
2018-03-16T04:12:29.115Z,12.23
2018-03-16T04:13:09.601Z,12.12
2018-03-16T04:13:50.090Z,12.17
2018-03-16T04:14:30.613Z,12.13
2018-03-16T04:15:11.105Z,12.14
2018-03-16T04:15:51.635Z,12.16
2018-03-16T04:17:41.399Z,12.13
2018-03-16T04:18:21.902Z,12.05
2018-03-16T04:19:02.416Z,12.02
2018-03-16T04:19:42.920Z,12.01
2018-03-16T04:20:23.487Z,12.13
2018-03-16T04:21:03.977Z,12.04
2018-03-16T04:21:44.512Z,12.07
2018-03-16T04:22:25.045Z,12.13
2018-03-16T04:23:05.548Z,12.19
2018-03-16T04:23:46.063Z,12.12
2018-03-16T04:24:26.618Z,12.23
2018-03-16T04:25:07.137Z,12.24
2018-03-16T04:25:47.614Z,12.1
2018-03-16T04:26:28.138Z,12.13
2018-03-16T04:27:08.643Z,12.09
2018-03-16T04:27:49.186Z,12.04
2018-03-16T04:28:29.706Z,12.13
2018-03-16T04:29:10.228Z,12.16
2018-03-16T04:29:50.737Z,12.07
2018-03-16T04:30:31.272Z,12.09
2018-03-16T04:31:11.745Z,11.98
2018-03-16T04:31:52.290Z,12.04
2018-03-16T04:32:32.777Z,11.95
2018-03-16T04:33:13.287Z,11.95
2018-03-16T04:33:53.802Z,11.99
2018-03-16T04:34:34.358Z,11.9
2018-03-16T04:35:14.880Z,11.78
2018-03-16T04:35:55.412Z,11.88
2018-03-16T04:36:35.916Z,11.73
2018-03-16T04:37:16.439Z,11.79
2018-03-16T04:37:56.966Z,11.8
2018-03-16T04:38:37.470Z,11.76
2018-03-16T04:39:18.004Z,11.78
2018-03-16T04:39:58.512Z,11.83
2018-03-16T04:40:39.049Z,11.82
2018-03-16T04:41:19.560Z,11.85
2018-03-16T04:42:00.156Z,11.94
2018-03-16T04:42:40.720Z,11.86
2018-03-16T04:43:21.245Z,11.94
2018-03-16T04:44:01.726Z,11.85
2018-03-16T04:44:42.220Z,11.83
2018-03-16T04:45:22.744Z,11.85
2018-03-16T04:46:03.241Z,11.8
2018-03-16T04:46:43.761Z,11.76
2018-03-16T04:47:24.290Z,11.83
2018-03-16T04:48:04.798Z,11.86
2018-03-16T04:48:45.305Z,11.9
2018-03-16T04:49:25.830Z,11.9
2018-03-16T04:50:06.351Z,11.79
2018-03-16T04:50:46.867Z,11.69
2018-03-16T04:51:27.381Z,11.75
2018-03-16T04:52:07.891Z,11.65
2018-03-16T04:52:48.404Z,11.7
2018-03-16T04:53:28.922Z,11.78
2018-03-16T04:54:09.442Z,11.7
2018-03-16T04:54:49.950Z,11.8
2018-03-16T04:55:30.463Z,11.67
2018-03-16T04:56:10.991Z,11.69
2018-03-16T04:56:51.516Z,11.57
2018-03-16T04:57:32.007Z,11.54
2018-03-16T04:58:12.489Z,11.6
2018-03-16T04:58:52.961Z,11.61
2018-03-16T04:59:33.471Z,11.61
2018-03-16T05:00:13.973Z,11.6
2018-03-16T05:00:54.504Z,11.65
2018-03-16T05:01:34.995Z,11.67
2018-03-16T05:02:15.521Z,11.67
2018-03-16T05:02:56.046Z,11.65
2018-03-16T05:03:36.544Z,11.6
2018-03-16T05:04:17.053Z,11.54
2018-03-16T05:04:57.567Z,11.61
2018-03-16T05:05:38.081Z,11.65
2018-03-16T05:06:18.600Z,11.61
2018-03-16T05:06:59.103Z,11.75
2018-03-16T05:07:39.632Z,11.79
2018-03-16T05:08:20.144Z,11.75
2018-03-16T05:09:00.649Z,11.79
2018-03-16T05:09:41.155Z,11.76
2018-03-16T05:10:21.665Z,11.73
2018-03-16T05:11:02.175Z,11.72
2018-03-16T05:11:42.694Z,11.69
2018-03-16T05:12:23.199Z,11.75
2018-03-16T05:13:03.714Z,11.82
2018-03-16T05:13:44.215Z,11.79
2018-03-16T05:14:24.731Z,11.78
2018-03-16T05:15:05.234Z,11.76
2018-03-16T05:15:45.749Z,11.7
2018-03-16T05:16:26.240Z,11.76
2018-03-16T05:17:06.768Z,11.7
2018-03-16T05:17:47.275Z,11.72
2018-03-16T05:18:27.779Z,11.83
2018-03-16T05:19:08.316Z,11.82
2018-03-16T05:19:48.827Z,11.85
2018-03-16T05:20:29.356Z,11.86
2018-03-16T05:21:09.859Z,11.85
2018-03-16T05:21:50.379Z,11.88
2018-03-16T05:22:30.887Z,11.8
2018-03-16T05:23:11.396Z,11.79
2018-03-16T05:23:51.921Z,11.7
2018-03-16T05:24:32.421Z,11.76
2018-03-16T05:25:12.936Z,11.7
2018-03-16T05:25:53.440Z,11.78
2018-03-16T05:26:33.958Z,11.7
2018-03-16T05:27:14.464Z,11.7
2018-03-16T05:27:54.966Z,11.76
2018-03-16T05:28:35.484Z,11.75
2018-03-16T05:29:15.993Z,11.65
2018-03-16T05:29:56.503Z,11.6
2018-03-16T05:30:37.068Z,11.6
2018-03-16T05:31:17.531Z,11.55
2018-03-16T05:31:58.050Z,11.72
2018-03-16T05:32:38.570Z,11.62
2018-03-16T05:33:19.098Z,11.62
2018-03-16T05:33:59.613Z,11.57
2018-03-16T05:34:40.134Z,11.54
2018-03-16T05:35:20.665Z,11.61
2018-03-16T05:36:01.171Z,11.62
2018-03-16T05:36:41.709Z,11.57
2018-03-16T05:37:22.229Z,11.6
2018-03-16T05:38:02.764Z,11.57
2018-03-16T05:38:43.258Z,11.67
2018-03-16T05:39:23.761Z,11.55
2018-03-16T05:40:04.270Z,11.65
2018-03-16T05:40:44.824Z,11.6
2018-03-16T05:41:25.348Z,11.65
2018-03-16T05:42:05.854Z,11.6
2018-03-16T05:42:46.372Z,11.61
2018-03-16T05:43:26.871Z,11.58
2018-03-16T05:44:07.369Z,11.29
2018-03-16T05:44:47.917Z,11.54
2018-03-16T05:45:28.480Z,11.47
2018-03-16T05:46:09.006Z,11.46
2018-03-16T05:46:49.506Z,11.46
2018-03-16T05:47:30.003Z,11.49
2018-03-16T05:48:10.526Z,11.51
2018-03-16T05:48:51.023Z,11.54
2018-03-16T05:49:31.550Z,11.51
2018-03-16T05:50:12.060Z,11.62
2018-03-16T05:50:52.588Z,11.61
2018-03-16T05:51:33.100Z,11.61
2018-03-16T05:52:13.602Z,11.62
2018-03-16T05:52:54.166Z,11.65
2018-03-16T05:53:34.675Z,11.55
2018-03-16T05:54:15.206Z,11.6
2018-03-16T05:54:55.705Z,11.67
2018-03-16T05:56:48.788Z,11.78
2018-03-16T05:57:29.352Z,11.65
2018-03-16T05:58:09.839Z,11.7
2018-03-16T05:58:50.342Z,11.55
2018-03-16T05:59:30.850Z,11.42
2018-03-16T06:00:11.354Z,11.54
2018-03-16T06:00:51.930Z,11.57
2018-03-16T06:01:32.362Z,11.39
2018-03-16T06:02:12.871Z,11.46
2018-03-16T06:02:53.394Z,11.43
2018-03-16T06:03:33.926Z,11.4
2018-03-16T06:04:14.441Z,11.42
2018-03-16T06:04:54.962Z,11.42
2018-03-16T06:05:35.478Z,11.46
2018-03-16T06:06:15.990Z,11.35
2018-03-16T06:06:56.513Z,11.29
2018-03-16T06:07:37.038Z,11.32
2018-03-16T06:08:17.540Z,11.39
2018-03-16T06:08:58.059Z,11.33
2018-03-16T06:09:38.601Z,11.37
2018-03-16T06:10:19.124Z,11.4
2018-03-16T06:10:59.631Z,11.42
2018-03-16T06:11:40.141Z,11.44
2018-03-16T06:12:20.664Z,11.42
2018-03-16T06:13:01.177Z,11.47
2018-03-16T06:13:41.695Z,11.42
2018-03-16T06:14:22.212Z,11.37
2018-03-16T06:15:02.736Z,11.35
2018-03-16T06:15:43.251Z,11.4
2018-03-16T06:16:23.765Z,11.4
2018-03-16T06:17:04.287Z,11.4
2018-03-16T06:17:44.834Z,11.35
2018-03-16T06:18:25.349Z,11.35
2018-03-16T06:19:05.881Z,11.42
2018-03-16T06:19:46.357Z,11.37
2018-03-16T06:20:26.930Z,11.33
2018-03-16T06:21:07.357Z,11.35
2018-03-16T06:21:47.867Z,11.37
2018-03-16T06:22:28.336Z,11.37
2018-03-16T06:23:08.929Z,11.28
2018-03-16T06:23:49.436Z,11.29
2018-03-16T06:24:29.904Z,11.29
2018-03-16T06:25:10.370Z,11.24
2018-03-16T06:25:50.921Z,11.24
2018-03-16T06:26:31.446Z,11.33
2018-03-16T06:27:11.948Z,11.35
2018-03-16T06:28:49.807Z,11.28
2018-03-16T06:29:30.333Z,11.43
2018-03-16T06:30:10.848Z,11.35
2018-03-16T06:30:51.356Z,11.32
2018-03-16T06:31:31.859Z,11.36
2018-03-16T06:32:12.391Z,11.44
2018-03-16T06:32:52.907Z,11.85
2018-03-16T06:33:33.425Z,12.05
2018-03-16T06:34:13.939Z,11.9
2018-03-16T06:34:54.446Z,11.86
2018-03-16T06:35:34.992Z,11.72
2018-03-16T06:36:15.556Z,11.7
2018-03-16T06:36:56.114Z,11.64
2018-03-16T06:37:37.692Z,11.79
2018-03-16T06:38:18.205Z,11.54
2018-03-16T06:38:58.715Z,11.36
2018-03-16T06:39:39.221Z,11.39
2018-03-16T06:40:19.728Z,11.33
2018-03-16T06:41:00.236Z,11.39
2018-03-16T06:41:40.767Z,11.4
2018-03-16T06:42:21.966Z,11.22
2018-03-16T06:43:02.503Z,11.21
2018-03-16T06:43:42.975Z,11.22
2018-03-16T06:44:23.454Z,11.21
2018-03-16T06:45:04.073Z,11.29
2018-03-16T06:45:44.440Z,11.22
2018-03-16T06:46:24.975Z,11.32
2018-03-16T06:47:05.551Z,11.18
2018-03-16T06:47:46.063Z,11.19
2018-03-16T06:48:26.544Z,11.32
2018-03-16T06:49:07.003Z,11.35
2018-03-16T06:49:47.475Z,11.27
2018-03-16T06:50:27.980Z,11.35
2018-03-16T06:51:08.458Z,11.21
2018-03-16T06:51:48.910Z,11.17
2018-03-16T06:52:29.410Z,11.22
2018-03-16T06:53:09.923Z,11.15
2018-03-16T06:53:50.413Z,11.14
2018-03-16T06:54:30.915Z,11.32
2018-03-16T06:55:11.429Z,11.18
2018-03-16T06:55:51.950Z,11.18
2018-03-16T06:56:32.403Z,11.18
2018-03-16T06:58:10.254Z,11.29
2018-03-16T06:58:50.775Z,11.32
2018-03-16T06:59:31.296Z,11.32
2018-03-16T07:00:11.825Z,11.33
2018-03-16T07:00:52.359Z,11.46
2018-03-16T07:01:32.876Z,11.51
2018-03-16T07:02:13.396Z,11.47
2018-03-16T07:02:53.893Z,11.47
2018-03-16T07:03:34.386Z,11.43
2018-03-16T07:04:14.887Z,11.32
2018-03-16T07:04:55.390Z,11.42
2018-03-16T07:05:35.875Z,11.47
2018-03-16T07:06:16.420Z,11.75
2018-03-16T07:06:56.930Z,11.78
2018-03-16T07:07:37.432Z,12.41
2018-03-16T07:08:17.908Z,12.35
2018-03-16T07:08:58.486Z,12.41
2018-03-16T07:09:38.984Z,12.28
2018-03-16T07:10:19.470Z,12.28
2018-03-16T07:10:59.952Z,11.78
2018-03-16T07:11:40.426Z,12.09
2018-03-16T07:12:20.897Z,12.16
2018-03-16T07:13:01.377Z,12.09
2018-03-16T07:13:41.921Z,12.04
2018-03-16T07:14:22.456Z,12.01
2018-03-16T07:15:02.936Z,12.27
2018-03-16T07:15:43.417Z,12.59
2018-03-16T07:16:23.926Z,12.54
2018-03-16T07:17:04.403Z,12.86
2018-03-16T07:17:44.884Z,12.56
2018-03-16T07:18:25.366Z,12.27
2018-03-16T07:19:05.952Z,12.5
2018-03-16T07:19:46.371Z,12.49
2018-03-16T07:20:26.823Z,12.14
2018-03-16T07:21:07.286Z,12.21
2018-03-16T07:21:47.818Z,12.31
2018-03-16T07:22:28.318Z,12.14
2018-03-16T07:23:08.934Z,12.02
2018-03-16T07:23:49.967Z,11.91
2018-03-16T07:24:29.830Z,11.94
2018-03-16T07:25:10.314Z,11.73
2018-03-16T07:25:50.880Z,11.76
2018-03-16T07:26:31.371Z,11.7
2018-03-16T07:27:11.866Z,11.75
2018-03-16T07:27:52.386Z,11.85
2018-03-16T07:28:32.894Z,11.78
2018-03-16T07:29:13.338Z,11.8
2018-03-16T07:29:53.841Z,11.79
2018-03-16T07:30:34.363Z,11.95
2018-03-16T07:31:14.837Z,11.91
2018-03-16T07:31:55.334Z,11.95
2018-03-16T07:32:35.846Z,12.04
2018-03-16T07:33:16.570Z,12.04
2018-03-16T07:33:57.070Z,11.96
2018-03-16T07:34:37.576Z,11.88
2018-03-16T07:35:18.089Z,11.76
2018-03-16T07:35:58.606Z,11.85
2018-03-16T07:36:39.061Z,11.83
2018-03-16T07:37:19.536Z,11.88
2018-03-16T07:38:00.007Z,12.04
2018-03-16T07:38:40.517Z,11.79
2018-03-16T07:39:21.022Z,11.83
2018-03-16T07:40:01.515Z,11.88
2018-03-16T07:40:42.038Z,11.98
2018-03-16T07:41:22.492Z,11.88
2018-03-16T07:42:02.992Z,11.95
2018-03-16T07:42:43.474Z,11.79
2018-03-16T07:43:24.122Z,11.72
2018-03-16T07:44:04.589Z,11.86
2018-03-16T07:44:45.055Z,11.85
2018-03-16T07:45:25.541Z,11.96
2018-03-16T07:46:06.053Z,11.94
2018-03-16T07:46:46.562Z,12.17
2018-03-16T07:47:27.069Z,12.31
2018-03-16T07:48:07.614Z,12.24
2018-03-16T07:48:48.083Z,12.29
2018-03-16T07:49:28.590Z,12.07
2018-03-16T07:50:09.349Z,12.01
2018-03-16T07:50:49.864Z,12.14
2018-03-16T07:51:30.381Z,12.2
2018-03-16T07:52:10.900Z,12.37
2018-03-16T07:52:51.400Z,12.41
2018-03-16T07:53:31.908Z,12.14
2018-03-16T07:54:12.376Z,12.67
2018-03-16T07:54:52.938Z,12.85
2018-03-16T07:55:33.472Z,13.25
2018-03-16T07:56:14.054Z,13.46
2018-03-16T07:56:54.469Z,13.41
2018-03-16T07:57:34.986Z,13.59
2018-03-16T07:58:15.490Z,13.59
2018-03-16T07:58:56.019Z,13.57
2018-03-16T07:59:36.524Z,13.44
2018-03-16T08:00:17.042Z,13.38
2018-03-16T08:00:57.559Z,13
2018-03-16T08:01:38.060Z,12.85
2018-03-16T08:02:18.567Z,12.72
2018-03-16T08:02:59.057Z,12.72
2018-03-16T08:03:39.609Z,12.77
2018-03-16T08:04:20.071Z,13.1
2018-03-16T08:05:00.594Z,13.42
2018-03-16T08:05:41.117Z,13.54
2018-03-16T08:06:21.593Z,13.32
2018-03-16T08:07:02.161Z,13.25
2018-03-16T08:07:42.678Z,13.32
2018-03-16T08:08:23.228Z,13.45
2018-03-16T08:09:03.722Z,13.6
2018-03-16T08:09:44.233Z,13.57
2018-03-16T08:10:24.745Z,13.54
2018-03-16T08:11:05.255Z,13.51
2018-03-16T08:11:45.753Z,13.49
2018-03-16T08:12:26.239Z,13.3
2018-03-16T08:13:06.766Z,13.39
2018-03-16T08:13:47.246Z,13.25
2018-03-16T08:14:27.772Z,13.1
2018-03-16T08:15:08.296Z,13.2
2018-03-16T08:15:48.804Z,13.26
2018-03-16T08:16:29.327Z,13.23
2018-03-16T08:17:09.860Z,13.05
2018-03-16T08:17:50.363Z,13.07
2018-03-16T08:18:30.869Z,13.08
2018-03-16T08:19:11.396Z,13.07
2018-03-16T08:19:51.891Z,13.1
2018-03-16T08:20:32.404Z,13.03
2018-03-16T08:21:12.925Z,13.08
2018-03-16T08:21:53.437Z,13.2
2018-03-16T08:22:33.950Z,13.1
2018-03-16T08:23:14.458Z,13.1
2018-03-16T08:23:54.956Z,13.2
2018-03-16T08:24:35.481Z,13.1
2018-03-16T08:25:15.981Z,13.19
2018-03-16T08:25:56.478Z,13.19
2018-03-16T08:26:36.976Z,13.08
2018-03-16T08:27:17.487Z,13.12
2018-03-16T08:27:58.006Z,13.28
2018-03-16T08:28:38.478Z,13.26
2018-03-16T08:29:18.992Z,13.29
2018-03-16T08:29:59.502Z,13.39
2018-03-16T08:30:40.008Z,13.39
2018-03-16T08:31:20.515Z,13.33
2018-03-16T08:32:01.031Z,13.38
2018-03-16T08:32:41.525Z,13.22
2018-03-16T08:33:22.022Z,13.42
2018-03-16T08:34:02.535Z,13.42
2018-03-16T08:34:43.011Z,13.36
2018-03-16T08:35:23.544Z,13.51
2018-03-16T08:36:04.063Z,13.33
2018-03-16T08:36:44.605Z,13.55
2018-03-16T08:37:25.111Z,13.63
2018-03-16T08:38:05.642Z,13.79
2018-03-16T08:38:46.156Z,13.78
2018-03-16T08:39:26.655Z,13.79
2018-03-16T08:40:07.202Z,13.71
2018-03-16T08:40:47.687Z,13.62
2018-03-16T08:41:28.184Z,13.54
2018-03-16T08:42:08.707Z,13.84
2018-03-16T08:42:49.206Z,13.96
2018-03-16T08:43:29.733Z,13.82
2018-03-16T08:44:10.247Z,13.67
2018-03-16T08:44:50.743Z,13.96
2018-03-16T08:45:31.256Z,14.1
2018-03-16T08:46:11.831Z,14.18
2018-03-16T08:46:52.264Z,14.29
2018-03-16T08:47:32.806Z,14.14
2018-03-16T08:48:13.389Z,13.77
2018-03-16T08:48:53.860Z,13.81